sensor_id;sensor_type;location;lat;lon;timestamp;temperature;humidity
26583;DHT22;14230;45.382;10.998;2023-05-02T00:02:02;13.00;99.90
26583;DHT22;14230;45.382;10.998;2023-05-02T00:04:29;13.00;99.90
26583;DHT22;14230;45.382;10.998;2023-05-02T00:06:57;13.00;99.90
26583;DHT22;14230;45.382;10.998;2023-05-02T00:09:24;13.00;99.90
26583;DHT22;14230;45.382;10.998;2023-05-02T00:11:52;13.00;99.90
26583;DHT22;14230;45.382;10.998;2023-05-02T00:14:19;13.00;99.90
26583;DHT22;14230;45.382;10.998;2023-05-02T00:16:47;13.00;99.90
26583;DHT22;14230;45.382;10.998;2023-05-02T00:19:14;13.10;99.90
26583;DHT22;14230;45.382;10.998;2023-05-02T00:21:42;13.10;99.90
26583;DHT22;14230;45.382;10.998;2023-05-02T00:24:09;13.20;99.90
26583;DHT22;14230;45.382;10.998;2023-05-02T00:26:36;13.10;99.90
26583;DHT22;14230;45.382;10.998;2023-05-02T00:29:04;13.20;99.90
26583;DHT22;14230;45.382;10.998;2023-05-02T00:31:32;13.20;99.90
26583;DHT22;14230;45.382;10.998;2023-05-02T00:34:00;13.20;99.90
26583;DHT22;14230;45.382;10.998;2023-05-02T00:36:27;13.20;99.90
26583;DHT22;14230;45.382;10.998;2023-05-02T00:38:54;13.30;99.90
26583;DHT22;14230;45.382;10.998;2023-05-02T00:41:22;13.30;99.90
26583;DHT22;14230;45.382;10.998;2023-05-02T00:43:49;13.40;99.90
26583;DHT22;14230;45.382;10.998;2023-05-02T00:46:16;13.30;99.90
26583;DHT22;14230;45.382;10.998;2023-05-02T00:48:44;13.50;99.90
26583;DHT22;14230;45.382;10.998;2023-05-02T00:51:12;13.50;99.90
26583;DHT22;14230;45.382;10.998;2023-05-02T00:53:39;13.50;99.90
26583;DHT22;14230;45.382;10.998;2023-05-02T00:56:07;13.60;99.90
26583;DHT22;14230;45.382;10.998;2023-05-02T00:58:37;13.70;99.90
26583;DHT22;14230;45.382;10.998;2023-05-02T01:01:26;13.70;99.90
26583;DHT22;14230;45.382;10.998;2023-05-02T01:14:16;13.70;99.90
26583;DHT22;14230;45.382;10.998;2023-05-02T01:16:45;13.70;99.90
26583;DHT22;14230;45.382;10.998;2023-05-02T01:19:24;13.70;99.90
26583;DHT22;14230;45.382;10.998;2023-05-02T01:21:53;13.70;99.90
26583;DHT22;14230;45.382;10.998;2023-05-02T01:24:29;13.60;99.90
26583;DHT22;14230;45.382;10.998;2023-05-02T01:29:29;13.60;99.90
26583;DHT22;14230;45.382;10.998;2023-05-02T01:31:59;13.50;99.90
26583;DHT22;14230;45.382;10.998;2023-05-02T01:34:30;13.50;99.90
26583;DHT22;14230;45.382;10.998;2023-05-02T01:37:00;13.50;99.90
26583;DHT22;14230;45.382;10.998;2023-05-02T01:39:29;13.40;99.90
26583;DHT22;14230;45.382;10.998;2023-05-02T01:41:58;13.40;99.90
26583;DHT22;14230;45.382;10.998;2023-05-02T01:44:29;13.50;99.90
26583;DHT22;14230;45.382;10.998;2023-05-02T01:46:59;13.50;99.90
26583;DHT22;14230;45.382;10.998;2023-05-02T01:49:32;13.50;99.90
26583;DHT22;14230;45.382;10.998;2023-05-02T01:52:04;13.50;99.90
26583;DHT22;14230;45.382;10.998;2023-05-02T01:54:35;13.60;99.90
26583;DHT22;14230;45.382;10.998;2023-05-02T01:57:05;13.70;99.90
26583;DHT22;14230;45.382;10.998;2023-05-02T01:59:34;13.70;99.90
26583;DHT22;14230;45.382;10.998;2023-05-02T02:02:05;13.70;99.90
26583;DHT22;14230;45.382;10.998;2023-05-02T02:04:36;13.70;99.90
26583;DHT22;14230;45.382;10.998;2023-05-02T02:07:10;13.80;99.90
26583;DHT22;14230;45.382;10.998;2023-05-02T02:09:39;13.80;99.90
26583;DHT22;14230;45.382;10.998;2023-05-02T02:12:11;13.80;99.90
26583;DHT22;14230;45.382;10.998;2023-05-02T02:14:42;13.80;99.90
26583;DHT22;14230;45.382;10.998;2023-05-02T02:17:15;13.80;99.90
26583;DHT22;14230;45.382;10.998;2023-05-02T02:19:46;13.70;99.90
26583;DHT22;14230;45.382;10.998;2023-05-02T02:22:14;13.70;99.90
26583;DHT22;14230;45.382;10.998;2023-05-02T02:24:45;13.70;99.90
26583;DHT22;14230;45.382;10.998;2023-05-02T02:27:13;13.60;99.90
26583;DHT22;14230;45.382;10.998;2023-05-02T02:29:43;13.60;99.90
26583;DHT22;14230;45.382;10.998;2023-05-02T02:32:12;13.50;99.90
26583;DHT22;14230;45.382;10.998;2023-05-02T02:34:40;13.50;99.90
26583;DHT22;14230;45.382;10.998;2023-05-02T02:37:17;13.50;99.90
26583;DHT22;14230;45.382;10.998;2023-05-02T02:40:15;13.50;99.90
26583;DHT22;14230;45.382;10.998;2023-05-02T02:48:46;13.40;99.90
26583;DHT22;14230;45.382;10.998;2023-05-02T02:51:29;13.30;99.90
26583;DHT22;14230;45.382;10.998;2023-05-02T02:57:02;13.30;99.90
26583;DHT22;14230;45.382;10.998;2023-05-02T02:59:36;13.30;99.90
26583;DHT22;14230;45.382;10.998;2023-05-02T03:02:11;13.30;99.90
26583;DHT22;14230;45.382;10.998;2023-05-02T03:04:42;13.30;99.90
26583;DHT22;14230;45.382;10.998;2023-05-02T03:07:12;13.30;99.90
26583;DHT22;14230;45.382;10.998;2023-05-02T03:09:44;13.40;99.90
26583;DHT22;14230;45.382;10.998;2023-05-02T03:12:16;13.40;99.90
26583;DHT22;14230;45.382;10.998;2023-05-02T03:14:44;13.30;99.90
26583;DHT22;14230;45.382;10.998;2023-05-02T03:17:12;13.30;99.90
26583;DHT22;14230;45.382;10.998;2023-05-02T03:19:40;13.30;99.90
26583;DHT22;14230;45.382;10.998;2023-05-02T03:22:08;13.30;99.90
26583;DHT22;14230;45.382;10.998;2023-05-02T03:24:36;13.30;99.90
26583;DHT22;14230;45.382;10.998;2023-05-02T03:27:04;13.30;99.90
26583;DHT22;14230;45.382;10.998;2023-05-02T03:29:38;13.30;99.90
26583;DHT22;14230;45.382;10.998;2023-05-02T03:32:05;13.40;99.90
26583;DHT22;14230;45.382;10.998;2023-05-02T03:34:36;13.40;99.90
26583;DHT22;14230;45.382;10.998;2023-05-02T03:37:04;13.40;99.90
26583;DHT22;14230;45.382;10.998;2023-05-02T03:39:31;13.40;99.90
26583;DHT22;14230;45.382;10.998;2023-05-02T03:42:00;13.40;99.90
26583;DHT22;14230;45.382;10.998;2023-05-02T03:44:28;13.40;99.90
26583;DHT22;14230;45.382;10.998;2023-05-02T03:46:55;13.40;99.90
26583;DHT22;14230;45.382;10.998;2023-05-02T03:49:23;13.30;99.90
26583;DHT22;14230;45.382;10.998;2023-05-02T03:51:52;13.30;99.90
26583;DHT22;14230;45.382;10.998;2023-05-02T03:54:25;13.30;99.90
26583;DHT22;14230;45.382;10.998;2023-05-02T03:56:54;13.30;99.90
26583;DHT22;14230;45.382;10.998;2023-05-02T03:59:28;13.30;99.90
26583;DHT22;14230;45.382;10.998;2023-05-02T04:01:58;13.30;99.90
26583;DHT22;14230;45.382;10.998;2023-05-02T04:04:35;13.30;99.90
26583;DHT22;14230;45.382;10.998;2023-05-02T04:07:04;13.30;99.90
26583;DHT22;14230;45.382;10.998;2023-05-02T04:09:34;13.40;99.90
26583;DHT22;14230;45.382;10.998;2023-05-02T04:12:06;13.40;99.90
26583;DHT22;14230;45.382;10.998;2023-05-02T04:14:36;13.40;99.90
26583;DHT22;14230;45.382;10.998;2023-05-02T04:17:04;13.40;99.90
26583;DHT22;14230;45.382;10.998;2023-05-02T04:19:45;13.40;99.90
26583;DHT22;14230;45.382;10.998;2023-05-02T04:22:14;13.40;99.90
26583;DHT22;14230;45.382;10.998;2023-05-02T04:24:46;13.40;99.90
26583;DHT22;14230;45.382;10.998;2023-05-02T04:27:14;13.40;99.90
26583;DHT22;14230;45.382;10.998;2023-05-02T04:29:42;13.40;99.90
26583;DHT22;14230;45.382;10.998;2023-05-02T04:32:10;13.40;99.90
26583;DHT22;14230;45.382;10.998;2023-05-02T04:34:39;13.40;99.90
26583;DHT22;14230;45.382;10.998;2023-05-02T04:37:07;13.40;99.90
26583;DHT22;14230;45.382;10.998;2023-05-02T04:39:35;13.40;99.90
26583;DHT22;14230;45.382;10.998;2023-05-02T04:42:07;13.40;99.90
26583;DHT22;14230;45.382;10.998;2023-05-02T04:44:42;13.50;99.90
26583;DHT22;14230;45.382;10.998;2023-05-02T04:47:13;13.50;99.90
26583;DHT22;14230;45.382;10.998;2023-05-02T04:49:41;13.50;99.90
26583;DHT22;14230;45.382;10.998;2023-05-02T04:52:09;13.50;99.90
26583;DHT22;14230;45.382;10.998;2023-05-02T04:54:37;13.50;99.90
26583;DHT22;14230;45.382;10.998;2023-05-02T04:57:04;13.50;99.90
26583;DHT22;14230;45.382;10.998;2023-05-02T04:59:36;13.50;99.90
26583;DHT22;14230;45.382;10.998;2023-05-02T05:02:05;13.50;99.90
26583;DHT22;14230;45.382;10.998;2023-05-02T05:04:35;13.50;99.90
26583;DHT22;14230;45.382;10.998;2023-05-02T05:07:03;13.60;99.90
26583;DHT22;14230;45.382;10.998;2023-05-02T05:09:31;13.60;99.90
26583;DHT22;14230;45.382;10.998;2023-05-02T05:11:58;13.60;99.90
26583;DHT22;14230;45.382;10.998;2023-05-02T05:14:25;13.70;99.90
26583;DHT22;14230;45.382;10.998;2023-05-02T05:16:54;13.70;99.90
26583;DHT22;14230;45.382;10.998;2023-05-02T05:19:22;13.80;99.90
26583;DHT22;14230;45.382;10.998;2023-05-02T05:21:50;13.80;99.90
26583;DHT22;14230;45.382;10.998;2023-05-02T05:24:19;13.80;99.90
26583;DHT22;14230;45.382;10.998;2023-05-02T05:26:47;13.80;99.90
26583;DHT22;14230;45.382;10.998;2023-05-02T05:29:15;13.90;99.90
26583;DHT22;14230;45.382;10.998;2023-05-02T05:31:44;13.90;99.90
26583;DHT22;14230;45.382;10.998;2023-05-02T05:34:15;13.90;99.90
26583;DHT22;14230;45.382;10.998;2023-05-02T05:36:43;13.90;99.90
26583;DHT22;14230;45.382;10.998;2023-05-02T05:39:11;14.00;99.90
26583;DHT22;14230;45.382;10.998;2023-05-02T05:41:41;14.10;99.90
26583;DHT22;14230;45.382;10.998;2023-05-02T05:44:11;14.10;99.90
26583;DHT22;14230;45.382;10.998;2023-05-02T05:46:38;14.20;99.90
26583;DHT22;14230;45.382;10.998;2023-05-02T05:49:08;14.30;99.90
26583;DHT22;14230;45.382;10.998;2023-05-02T05:51:36;14.30;99.90
26583;DHT22;14230;45.382;10.998;2023-05-02T05:54:04;14.40;99.90
26583;DHT22;14230;45.382;10.998;2023-05-02T05:56:32;14.50;99.90
26583;DHT22;14230;45.382;10.998;2023-05-02T05:59:07;14.60;99.90
26583;DHT22;14230;45.382;10.998;2023-05-02T06:01:34;14.60;99.90
26583;DHT22;14230;45.382;10.998;2023-05-02T06:04:04;14.70;99.90
26583;DHT22;14230;45.382;10.998;2023-05-02T06:06:34;14.80;99.90
26583;DHT22;14230;45.382;10.998;2023-05-02T06:09:03;14.90;99.90
26583;DHT22;14230;45.382;10.998;2023-05-02T06:11:31;15.10;99.90
26583;DHT22;14230;45.382;10.998;2023-05-02T06:14:00;15.10;99.90
26583;DHT22;14230;45.382;10.998;2023-05-02T06:16:27;15.20;99.90
26583;DHT22;14230;45.382;10.998;2023-05-02T06:18:55;15.30;99.90
26583;DHT22;14230;45.382;10.998;2023-05-02T06:21:22;15.40;99.90
26583;DHT22;14230;45.382;10.998;2023-05-02T06:23:49;15.50;99.90
26583;DHT22;14230;45.382;10.998;2023-05-02T06:26:18;15.50;99.90
26583;DHT22;14230;45.382;10.998;2023-05-02T06:28:45;15.60;99.90
26583;DHT22;14230;45.382;10.998;2023-05-02T06:31:13;15.60;99.90
26583;DHT22;14230;45.382;10.998;2023-05-02T06:33:40;15.70;99.90
26583;DHT22;14230;45.382;10.998;2023-05-02T06:36:09;15.70;99.90
26583;DHT22;14230;45.382;10.998;2023-05-02T06:38:37;15.80;99.90
26583;DHT22;14230;45.382;10.998;2023-05-02T06:41:04;15.90;99.90
26583;DHT22;14230;45.382;10.998;2023-05-02T06:43:31;15.90;99.90
26583;DHT22;14230;45.382;10.998;2023-05-02T06:46:00;16.00;99.90
26583;DHT22;14230;45.382;10.998;2023-05-02T06:48:27;16.00;99.90
26583;DHT22;14230;45.382;10.998;2023-05-02T06:50:55;16.20;99.90
26583;DHT22;14230;45.382;10.998;2023-05-02T06:53:22;16.30;99.90
26583;DHT22;14230;45.382;10.998;2023-05-02T06:55:50;16.30;99.90
26583;DHT22;14230;45.382;10.998;2023-05-02T06:58:18;16.40;99.90
26583;DHT22;14230;45.382;10.998;2023-05-02T07:00:45;16.40;99.90
26583;DHT22;14230;45.382;10.998;2023-05-02T07:03:14;16.40;99.90
26583;DHT22;14230;45.382;10.998;2023-05-02T07:05:42;16.40;99.90
26583;DHT22;14230;45.382;10.998;2023-05-02T07:08:09;16.20;99.90
26583;DHT22;14230;45.382;10.998;2023-05-02T07:10:37;16.30;99.90
26583;DHT22;14230;45.382;10.998;2023-05-02T07:13:05;16.30;99.90
26583;DHT22;14230;45.382;10.998;2023-05-02T07:15:32;16.30;99.90
26583;DHT22;14230;45.382;10.998;2023-05-02T07:18:00;16.30;99.90
26583;DHT22;14230;45.382;10.998;2023-05-02T07:20:31;16.40;99.90
26583;DHT22;14230;45.382;10.998;2023-05-02T07:22:58;16.60;99.90
26583;DHT22;14230;45.382;10.998;2023-05-02T07:25:26;16.70;99.90
26583;DHT22;14230;45.382;10.998;2023-05-02T07:27:54;16.90;99.90
26583;DHT22;14230;45.382;10.998;2023-05-02T07:30:22;17.00;99.90
26583;DHT22;14230;45.382;10.998;2023-05-02T07:32:50;17.20;99.90
26583;DHT22;14230;45.382;10.998;2023-05-02T07:35:17;17.20;99.90
26583;DHT22;14230;45.382;10.998;2023-05-02T07:37:45;17.20;99.90
26583;DHT22;14230;45.382;10.998;2023-05-02T07:40:12;17.30;99.90
26583;DHT22;14230;45.382;10.998;2023-05-02T07:42:40;17.40;99.90
26583;DHT22;14230;45.382;10.998;2023-05-02T07:45:08;17.40;99.90
26583;DHT22;14230;45.382;10.998;2023-05-02T07:47:36;17.40;99.90
26583;DHT22;14230;45.382;10.998;2023-05-02T07:50:04;17.20;99.90
26583;DHT22;14230;45.382;10.998;2023-05-02T07:52:32;17.10;99.90
26583;DHT22;14230;45.382;10.998;2023-05-02T07:54:59;17.10;99.90
26583;DHT22;14230;45.382;10.998;2023-05-02T07:57:27;17.10;99.90
26583;DHT22;14230;45.382;10.998;2023-05-02T07:59:54;17.10;99.90
26583;DHT22;14230;45.382;10.998;2023-05-02T08:02:23;17.00;99.90
26583;DHT22;14230;45.382;10.998;2023-05-02T08:04:52;17.00;99.90
26583;DHT22;14230;45.382;10.998;2023-05-02T08:07:20;16.80;99.90
26583;DHT22;14230;45.382;10.998;2023-05-02T08:09:47;16.60;99.90
26583;DHT22;14230;45.382;10.998;2023-05-02T08:12:15;16.40;99.90
26583;DHT22;14230;45.382;10.998;2023-05-02T08:14:42;16.20;99.90
26583;DHT22;14230;45.382;10.998;2023-05-02T08:17:10;16.10;99.90
26583;DHT22;14230;45.382;10.998;2023-05-02T08:19:37;16.00;99.90
26583;DHT22;14230;45.382;10.998;2023-05-02T08:22:05;16.00;99.90
26583;DHT22;14230;45.382;10.998;2023-05-02T08:24:32;16.10;99.90
26583;DHT22;14230;45.382;10.998;2023-05-02T08:27:00;16.30;99.90
26583;DHT22;14230;45.382;10.998;2023-05-02T08:29:32;16.40;99.90
26583;DHT22;14230;45.382;10.998;2023-05-02T08:32:00;16.70;99.90
26583;DHT22;14230;45.382;10.998;2023-05-02T08:34:27;16.90;99.90
26583;DHT22;14230;45.382;10.998;2023-05-02T08:36:55;17.00;99.90
26583;DHT22;14230;45.382;10.998;2023-05-02T08:39:24;17.20;99.90
26583;DHT22;14230;45.382;10.998;2023-05-02T08:41:52;17.40;99.90
26583;DHT22;14230;45.382;10.998;2023-05-02T08:44:19;17.60;99.90
26583;DHT22;14230;45.382;10.998;2023-05-02T08:46:48;18.00;99.90
26583;DHT22;14230;45.382;10.998;2023-05-02T08:49:17;18.20;99.90
26583;DHT22;14230;45.382;10.998;2023-05-02T08:51:48;18.40;99.90
26583;DHT22;14230;45.382;10.998;2023-05-02T08:54:19;18.70;99.90
26583;DHT22;14230;45.382;10.998;2023-05-02T08:56:47;18.80;99.90
26583;DHT22;14230;45.382;10.998;2023-05-02T08:59:14;18.90;99.90
26583;DHT22;14230;45.382;10.998;2023-05-02T09:01:43;18.50;99.90
26583;DHT22;14230;45.382;10.998;2023-05-02T09:04:13;18.20;99.90
26583;DHT22;14230;45.382;10.998;2023-05-02T09:06:41;17.90;99.90
26583;DHT22;14230;45.382;10.998;2023-05-02T09:09:08;17.70;99.90
26583;DHT22;14230;45.382;10.998;2023-05-02T09:11:36;17.50;99.90
26583;DHT22;14230;45.382;10.998;2023-05-02T09:14:14;17.30;99.90
26583;DHT22;14230;45.382;10.998;2023-05-02T09:16:42;17.10;99.90
26583;DHT22;14230;45.382;10.998;2023-05-02T09:19:10;16.90;99.90
26583;DHT22;14230;45.382;10.998;2023-05-02T09:21:49;16.80;99.90
26583;DHT22;14230;45.382;10.998;2023-05-02T09:24:20;16.70;99.90
26583;DHT22;14230;45.382;10.998;2023-05-02T09:27:04;16.70;99.90
26583;DHT22;14230;45.382;10.998;2023-05-02T09:29:33;16.60;99.90
26583;DHT22;14230;45.382;10.998;2023-05-02T09:32:05;16.50;99.90
26583;DHT22;14230;45.382;10.998;2023-05-02T09:34:33;16.40;99.90
26583;DHT22;14230;45.382;10.998;2023-05-02T09:37:00;16.40;99.90
26583;DHT22;14230;45.382;10.998;2023-05-02T09:39:30;16.50;99.90
26583;DHT22;14230;45.382;10.998;2023-05-02T09:41:58;16.70;99.90
26583;DHT22;14230;45.382;10.998;2023-05-02T09:44:34;16.60;99.90
26583;DHT22;14230;45.382;10.998;2023-05-02T09:47:02;16.60;99.90
26583;DHT22;14230;45.382;10.998;2023-05-02T09:49:43;16.50;99.90
26583;DHT22;14230;45.382;10.998;2023-05-02T09:52:16;16.70;99.90
26583;DHT22;14230;45.382;10.998;2023-05-02T09:54:44;16.90;99.90
26583;DHT22;14230;45.382;10.998;2023-05-02T09:57:17;16.90;99.90
26583;DHT22;14230;45.382;10.998;2023-05-02T09:59:57;17.00;99.90
26583;DHT22;14230;45.382;10.998;2023-05-02T10:02:25;17.00;99.90
26583;DHT22;14230;45.382;10.998;2023-05-02T10:04:56;17.00;99.90
26583;DHT22;14230;45.382;10.998;2023-05-02T10:07:25;17.00;99.90
26583;DHT22;14230;45.382;10.998;2023-05-02T10:09:53;17.00;99.90
26583;DHT22;14230;45.382;10.998;2023-05-02T10:12:25;17.20;99.90
26583;DHT22;14230;45.382;10.998;2023-05-02T10:15:03;17.20;99.90
26583;DHT22;14230;45.382;10.998;2023-05-02T10:17:37;17.10;99.90
26583;DHT22;14230;45.382;10.998;2023-05-02T10:20:06;17.10;99.90
26583;DHT22;14230;45.382;10.998;2023-05-02T10:22:34;17.00;99.90
26583;DHT22;14230;45.382;10.998;2023-05-02T10:25:03;17.00;99.90
26583;DHT22;14230;45.382;10.998;2023-05-02T10:27:31;17.20;99.90
26583;DHT22;14230;45.382;10.998;2023-05-02T10:30:00;17.30;99.90
26583;DHT22;14230;45.382;10.998;2023-05-02T10:32:28;17.30;99.90
26583;DHT22;14230;45.382;10.998;2023-05-02T10:35:03;17.20;99.90
26583;DHT22;14230;45.382;10.998;2023-05-02T10:37:34;17.40;99.90
26583;DHT22;14230;45.382;10.998;2023-05-02T10:40:02;17.40;99.90
26583;DHT22;14230;45.382;10.998;2023-05-02T10:42:37;17.40;99.90
26583;DHT22;14230;45.382;10.998;2023-05-02T10:45:32;17.40;99.90
26583;DHT22;14230;45.382;10.998;2023-05-02T10:48:25;17.50;99.90
26583;DHT22;14230;45.382;10.998;2023-05-02T10:50:54;17.40;99.90
26583;DHT22;14230;45.382;10.998;2023-05-02T10:56:12;17.30;99.90
26583;DHT22;14230;45.382;10.998;2023-05-02T10:58:44;17.50;99.90
26583;DHT22;14230;45.382;10.998;2023-05-02T11:06:29;17.70;99.90
26583;DHT22;14230;45.382;10.998;2023-05-02T11:14:11;18.10;99.90
26583;DHT22;14230;45.382;10.998;2023-05-02T11:24:47;18.40;99.90
26583;DHT22;14230;45.382;10.998;2023-05-02T11:30:03;18.50;99.90
26583;DHT22;14230;45.382;10.998;2023-05-02T11:35:24;18.20;99.90
26583;DHT22;14230;45.382;10.998;2023-05-02T11:40:27;17.90;99.90
26583;DHT22;14230;45.382;10.998;2023-05-02T11:42:56;17.80;99.90
26583;DHT22;14230;45.382;10.998;2023-05-02T11:45:34;17.70;99.90
26583;DHT22;14230;45.382;10.998;2023-05-02T11:48:06;17.70;99.90
26583;DHT22;14230;45.382;10.998;2023-05-02T11:53:17;18.00;99.90
26583;DHT22;14230;45.382;10.998;2023-05-02T11:55:50;18.10;99.90
26583;DHT22;14230;45.382;10.998;2023-05-02T11:58:23;18.20;99.90
26583;DHT22;14230;45.382;10.998;2023-05-02T12:00:51;18.40;99.90
26583;DHT22;14230;45.382;10.998;2023-05-02T12:03:28;18.40;99.90
26583;DHT22;14230;45.382;10.998;2023-05-02T12:06:08;18.60;99.90
26583;DHT22;14230;45.382;10.998;2023-05-02T12:08:38;18.60;99.90
26583;DHT22;14230;45.382;10.998;2023-05-02T12:11:05;18.70;99.90
26583;DHT22;14230;45.382;10.998;2023-05-02T12:13:33;18.60;99.90
26583;DHT22;14230;45.382;10.998;2023-05-02T12:16:01;18.60;99.90
26583;DHT22;14230;45.382;10.998;2023-05-02T12:18:29;18.50;99.90
26583;DHT22;14230;45.382;10.998;2023-05-02T12:20:56;18.60;99.90
26583;DHT22;14230;45.382;10.998;2023-05-02T12:23:24;18.50;99.90
26583;DHT22;14230;45.382;10.998;2023-05-02T12:25:53;18.50;99.90
26583;DHT22;14230;45.382;10.998;2023-05-02T12:28:20;18.50;99.90
26583;DHT22;14230;45.382;10.998;2023-05-02T12:30:50;18.50;99.90
26583;DHT22;14230;45.382;10.998;2023-05-02T12:33:18;18.50;99.90
26583;DHT22;14230;45.382;10.998;2023-05-02T12:35:45;18.60;99.90
26583;DHT22;14230;45.382;10.998;2023-05-02T12:38:22;18.60;99.90
26583;DHT22;14230;45.382;10.998;2023-05-02T12:40:53;18.50;99.90
26583;DHT22;14230;45.382;10.998;2023-05-02T12:43:23;18.50;99.90
26583;DHT22;14230;45.382;10.998;2023-05-02T12:46:08;18.60;99.90
26583;DHT22;14230;45.382;10.998;2023-05-02T12:48:36;18.50;99.90
26583;DHT22;14230;45.382;10.998;2023-05-02T12:51:04;18.50;99.90
26583;DHT22;14230;45.382;10.998;2023-05-02T12:53:38;18.60;99.90
26583;DHT22;14230;45.382;10.998;2023-05-02T12:56:07;18.70;99.90
26583;DHT22;14230;45.382;10.998;2023-05-02T12:58:55;18.60;99.90
26583;DHT22;14230;45.382;10.998;2023-05-02T13:01:24;18.50;99.90
26583;DHT22;14230;45.382;10.998;2023-05-02T13:03:51;18.50;99.90
26583;DHT22;14230;45.382;10.998;2023-05-02T13:06:19;18.50;99.90
26583;DHT22;14230;45.382;10.998;2023-05-02T13:08:46;18.40;99.90
26583;DHT22;14230;45.382;10.998;2023-05-02T13:11:14;18.40;99.90
26583;DHT22;14230;45.382;10.998;2023-05-02T13:13:42;18.40;99.90
26583;DHT22;14230;45.382;10.998;2023-05-02T13:16:09;18.30;99.90
26583;DHT22;14230;45.382;10.998;2023-05-02T13:18:37;18.30;99.90
26583;DHT22;14230;45.382;10.998;2023-05-02T13:21:04;18.30;99.90
26583;DHT22;14230;45.382;10.998;2023-05-02T13:23:32;18.30;99.90
26583;DHT22;14230;45.382;10.998;2023-05-02T13:25:59;18.30;99.90
26583;DHT22;14230;45.382;10.998;2023-05-02T13:28:27;18.40;99.90
26583;DHT22;14230;45.382;10.998;2023-05-02T13:30:59;18.40;99.90
26583;DHT22;14230;45.382;10.998;2023-05-02T13:33:26;18.50;99.90
26583;DHT22;14230;45.382;10.998;2023-05-02T13:35:54;18.50;99.90
26583;DHT22;14230;45.382;10.998;2023-05-02T13:38:21;18.70;99.90
26583;DHT22;14230;45.382;10.998;2023-05-02T13:40:49;18.70;99.90
26583;DHT22;14230;45.382;10.998;2023-05-02T13:43:16;18.70;99.90
26583;DHT22;14230;45.382;10.998;2023-05-02T13:45:44;18.60;99.90
26583;DHT22;14230;45.382;10.998;2023-05-02T13:48:13;18.70;99.90
26583;DHT22;14230;45.382;10.998;2023-05-02T13:50:42;18.70;99.90
26583;DHT22;14230;45.382;10.998;2023-05-02T13:53:09;18.60;99.90
26583;DHT22;14230;45.382;10.998;2023-05-02T13:55:37;18.60;99.90
26583;DHT22;14230;45.382;10.998;2023-05-02T13:58:04;18.60;99.90
26583;DHT22;14230;45.382;10.998;2023-05-02T14:00:32;18.70;99.90
26583;DHT22;14230;45.382;10.998;2023-05-02T14:03:00;18.70;99.90
26583;DHT22;14230;45.382;10.998;2023-05-02T14:05:28;18.70;99.90
26583;DHT22;14230;45.382;10.998;2023-05-02T14:07:56;18.60;99.90
26583;DHT22;14230;45.382;10.998;2023-05-02T14:10:25;18.50;99.90
26583;DHT22;14230;45.382;10.998;2023-05-02T14:12:52;18.50;99.90
26583;DHT22;14230;45.382;10.998;2023-05-02T14:15:20;18.50;99.90
26583;DHT22;14230;45.382;10.998;2023-05-02T14:17:48;18.50;99.90
26583;DHT22;14230;45.382;10.998;2023-05-02T14:20:16;18.40;99.90
26583;DHT22;14230;45.382;10.998;2023-05-02T14:22:43;18.40;99.90
26583;DHT22;14230;45.382;10.998;2023-05-02T14:25:11;18.40;99.90
26583;DHT22;14230;45.382;10.998;2023-05-02T14:27:40;18.30;99.90
26583;DHT22;14230;45.382;10.998;2023-05-02T14:30:08;18.30;99.90
26583;DHT22;14230;45.382;10.998;2023-05-02T14:32:36;18.40;99.90
26583;DHT22;14230;45.382;10.998;2023-05-02T14:35:03;18.40;99.90
26583;DHT22;14230;45.382;10.998;2023-05-02T14:37:31;18.40;99.90
26583;DHT22;14230;45.382;10.998;2023-05-02T14:39:58;18.30;99.90
26583;DHT22;14230;45.382;10.998;2023-05-02T14:42:26;18.30;99.90
26583;DHT22;14230;45.382;10.998;2023-05-02T14:44:56;18.30;99.90
26583;DHT22;14230;45.382;10.998;2023-05-02T14:47:27;18.20;99.90
26583;DHT22;14230;45.382;10.998;2023-05-02T14:49:57;18.10;99.90
26583;DHT22;14230;45.382;10.998;2023-05-02T14:52:24;18.10;99.90
26583;DHT22;14230;45.382;10.998;2023-05-02T14:54:51;18.10;99.90
26583;DHT22;14230;45.382;10.998;2023-05-02T14:57:19;18.20;99.90
26583;DHT22;14230;45.382;10.998;2023-05-02T14:59:46;18.10;99.90
26583;DHT22;14230;45.382;10.998;2023-05-02T15:02:14;18.20;99.90
26583;DHT22;14230;45.382;10.998;2023-05-02T15:04:41;18.10;99.90
26583;DHT22;14230;45.382;10.998;2023-05-02T15:07:09;18.10;99.90
26583;DHT22;14230;45.382;10.998;2023-05-02T15:09:37;18.20;99.90
26583;DHT22;14230;45.382;10.998;2023-05-02T15:12:05;18.10;99.90
26583;DHT22;14230;45.382;10.998;2023-05-02T15:14:32;18.10;99.90
26583;DHT22;14230;45.382;10.998;2023-05-02T15:17:00;18.20;99.90
26583;DHT22;14230;45.382;10.998;2023-05-02T15:19:27;18.10;99.90
26583;DHT22;14230;45.382;10.998;2023-05-02T15:21:55;18.10;99.90
26583;DHT22;14230;45.382;10.998;2023-05-02T15:24:25;18.00;99.90
26583;DHT22;14230;45.382;10.998;2023-05-02T15:26:53;18.00;99.90
26583;DHT22;14230;45.382;10.998;2023-05-02T15:29:20;18.00;99.90
26583;DHT22;14230;45.382;10.998;2023-05-02T15:31:48;18.00;99.90
26583;DHT22;14230;45.382;10.998;2023-05-02T15:34:15;17.80;99.90
26583;DHT22;14230;45.382;10.998;2023-05-02T15:36:43;17.80;99.90
26583;DHT22;14230;45.382;10.998;2023-05-02T15:39:10;17.70;99.90
26583;DHT22;14230;45.382;10.998;2023-05-02T15:41:38;17.60;99.90
26583;DHT22;14230;45.382;10.998;2023-05-02T15:44:08;17.60;99.90
26583;DHT22;14230;45.382;10.998;2023-05-02T15:46:36;17.50;99.90
26583;DHT22;14230;45.382;10.998;2023-05-02T15:49:03;17.40;99.90
26583;DHT22;14230;45.382;10.998;2023-05-02T15:51:31;17.40;99.90
26583;DHT22;14230;45.382;10.998;2023-05-02T15:53:59;17.30;99.90
26583;DHT22;14230;45.382;10.998;2023-05-02T15:56:26;17.20;99.90
26583;DHT22;14230;45.382;10.998;2023-05-02T15:58:54;17.10;99.90
26583;DHT22;14230;45.382;10.998;2023-05-02T16:01:21;17.10;99.90
26583;DHT22;14230;45.382;10.998;2023-05-02T16:03:50;17.00;99.90
26583;DHT22;14230;45.382;10.998;2023-05-02T16:06:18;16.90;99.90
26583;DHT22;14230;45.382;10.998;2023-05-02T16:08:45;16.90;99.90
26583;DHT22;14230;45.382;10.998;2023-05-02T16:11:13;16.90;99.90
26583;DHT22;14230;45.382;10.998;2023-05-02T16:13:40;16.90;99.90
26583;DHT22;14230;45.382;10.998;2023-05-02T16:16:09;16.90;99.90
26583;DHT22;14230;45.382;10.998;2023-05-02T16:18:36;16.90;99.90
26583;DHT22;14230;45.382;10.998;2023-05-02T16:21:04;16.80;99.90
26583;DHT22;14230;45.382;10.998;2023-05-02T16:23:31;16.80;99.90